Terminal Aerodrome Forecast
Issued by NWS Midland/Odessa, TX

Current Version | Previous Version | Text Only | Print | Product List | Glossary On
Versions: 1 2 3 4 5 6 7 8 9 10 11 12 13 14 15 16
000
FTUS44 KMAF 210500
TAFMAF
TAF
KMAF 210536Z 2106/2206 17015KT P6SM BKN250
     FM211600 17016G26KT P6SM SCT040 SCT250
     FM220100 16013KT P6SM BKN200=

USA.gov is the U.S. government's official web portal to all federal, state and local government web resources and services.